Time;durP1;ratioP1;P1;durP2;ratioP2;P2;SDS_P1;SDS_P2;PMS_P1;PMS_P2;Temp;Humidity;BMP_temperature;BMP_pressure;BME280_temperature;BME280_humidity;BME280_pressure;Samples;Min_cycle;Max_cycle;Signal;HPM_P1;HPM_P2
2023/04/06 00:01:31;;;;;;;9.48;5.82;;;-0.40;79.90;;;;;;5069099;28;20044;-88
2023/04/06 00:03:57;;;;;;;8.75;5.25;;;-0.50;84.70;;;;;;5039799;28;20033;-84
2023/04/06 00:06:23;;;;;;;11.55;6.00;;;-0.40;92.70;;;;;;5075400;28;20059;-84
2023/04/06 00:08:49;;;;;;;7.85;5.28;;;-0.30;95.10;;;;;;5066885;28;20482;-83
2023/04/06 00:11:16;;;;;;;7.97;5.28;;;-0.40;85.20;;;;;;5048890;28;20036;-83
2023/04/06 00:13:42;;;;;;;11.20;6.20;;;-0.40;90.30;;;;;;5073301;28;20048;-85
2023/04/06 00:16:08;;;;;;;7.85;5.22;;;-0.40;88.40;;;;;;5078156;28;20051;-83
2023/04/06 00:18:34;;;;;;;9.68;5.95;;;-0.40;90.90;;;;;;5060360;28;20044;-88
2023/04/06 00:21:00;;;;;;;10.32;5.13;;;-0.40;89.50;;;;;;5061356;28;20040;-85
2023/04/06 00:23:25;;;;;;;7.90;5.45;;;-0.40;90.80;;;;;;5062851;28;20077;-83
2023/04/06 00:25:51;;;;;;;8.55;5.55;;;-0.50;91.70;;;;;;5040462;28;20040;-83
2023/04/06 00:28:17;;;;;;;6.72;4.30;;;-0.50;92.00;;;;;;5082946;28;20037;-83
2023/04/06 00:30:43;;;;;;;9.27;5.35;;;-0.50;91.90;;;;;;5071041;28;20032;-84
2023/04/06 00:33:08;;;;;;;11.43;5.05;;;-0.50;92.00;;;;;;5048836;28;20044;-83
2023/04/06 00:35:34;;;;;;;9.98;5.75;;;-0.50;92.20;;;;;;5073967;28;20499;-88
2023/04/06 00:38:00;;;;;;;7.85;5.32;;;-0.50;96.20;;;;;;5051299;28;20048;-83
2023/04/06 00:40:28;;;;;;;6.97;5.10;;;-0.60;98.20;;;;;;5087707;28;20044;-84
2023/04/06 00:42:54;;;;;;;9.43;5.30;;;-0.60;96.50;;;;;;5054450;28;20056;-84
2023/04/06 00:45:20;;;;;;;7.82;5.25;;;-0.60;98.90;;;;;;5066366;28;20040;-84
2023/04/06 00:47:46;;;;;;;8.65;5.45;;;-0.60;99.00;;;;;;5084886;28;20093;-83
2023/04/06 00:50:11;;;;;;;9.80;5.53;;;-0.60;99.80;;;;;;5082733;28;20044;-84
2023/04/06 00:52:37;;;;;;;10.43;5.70;;;-0.70;99.90;;;;;;5064823;28;20061;-88
2023/04/06 00:55:04;;;;;;;10.80;5.30;;;-0.70;99.90;;;;;;5073691;28;20097;-84
2023/04/06 00:57:31;;;;;;;9.18;5.45;;;-0.80;99.90;;;;;;5088197;28;20118;-83
2023/04/06 00:59:57;;;;;;;8.63;5.88;;;-0.70;99.90;;;;;;5077712;28;20897;-83
2023/04/06 01:02:25;;;;;;;11.02;5.32;;;-0.80;99.90;;;;;;5089598;28;20040;-83
2023/04/06 01:04:51;;;;;;;10.10;6.13;;;-0.80;99.90;;;;;;5066973;28;20052;-83
2023/04/06 01:07:17;;;;;;;8.15;5.65;;;-0.80;99.90;;;;;;5078308;28;20485;-84
2023/04/06 01:09:43;;;;;;;8.43;5.13;;;-0.90;99.90;;;;;;5071022;28;20051;-88
2023/04/06 01:12:08;;;;;;;9.45;5.20;;;-0.90;99.90;;;;;;5060110;28;20097;-83
2023/04/06 01:14:34;;;;;;;9.00;5.13;;;-0.90;99.90;;;;;;5059995;28;20130;-83
2023/04/06 01:17:00;;;;;;;7.85;5.38;;;-0.90;99.90;;;;;;5044580;28;20115;-83
2023/04/06 01:19:26;;;;;;;8.63;5.35;;;-0.90;99.90;;;;;;5062088;28;20079;-83
2023/04/06 01:21:53;;;;;;;8.98;5.50;;;-0.80;99.90;;;;;;5061718;28;20392;-83
2023/04/06 01:24:19;;;;;;;9.38;5.55;;;-1.00;99.90;;;;;;5056222;28;20048;-83
2023/04/06 01:26:45;;;;;;;10.38;6.35;;;-1.00;99.90;;;;;;5057338;28;20051;-88
2023/04/06 01:29:11;;;;;;;7.93;5.70;;;-1.00;99.90;;;;;;5057092;28;20401;-84
2023/04/06 01:31:38;;;;;;;7.78;5.63;;;-1.00;99.90;;;;;;5069345;28;20086;-83
2023/04/06 01:34:03;;;;;;;9.65;6.35;;;-1.10;99.90;;;;;;5063172;28;20055;-83
2023/04/06 01:36:29;;;;;;;10.18;5.70;;;-1.10;99.90;;;;;;5075846;28;20048;-83
2023/04/06 01:38:55;;;;;;;10.95;5.85;;;-1.10;99.90;;;;;;5045091;28;20055;-88
2023/04/06 01:41:21;;;;;;;9.27;5.70;;;-1.10;99.90;;;;;;5081402;28;20078;-83
2023/04/06 01:43:48;;;;;;;10.77;6.10;;;-1.20;99.90;;;;;;5074691;28;20051;-83
2023/04/06 01:46:13;;;;;;;9.85;5.35;;;-1.20;99.90;;;;;;5072818;28;20040;-84
2023/04/06 01:48:39;;;;;;;11.35;5.72;;;-1.20;99.90;;;;;;5078843;28;20084;-83
2023/04/06 01:51:05;;;;;;;9.73;5.32;;;-1.20;99.90;;;;;;5054513;28;20035;-83
2023/04/06 01:53:30;;;;;;;9.88;5.50;;;-1.00;99.90;;;;;;5063158;28;20152;-83
2023/04/06 01:55:56;;;;;;;9.05;5.28;;;-1.00;99.90;;;;;;5065706;28;20036;-84
2023/04/06 01:58:22;;;;;;;9.13;6.03;;;-1.00;99.90;;;;;;5082279;28;20044;-83
2023/04/06 02:00:48;;;;;;;12.70;5.38;;;-1.00;99.90;;;;;;5040464;28;20049;-84
2023/04/06 02:03:14;;;;;;;11.30;5.95;;;-0.90;99.90;;;;;;5073547;28;20052;-83
2023/04/06 02:05:40;;;;;;;11.32;6.38;;;-0.90;99.90;;;;;;5082634;28;20078;-88
2023/04/06 02:08:06;;;;;;;7.95;5.38;;;-0.90;99.90;;;;;;5056141;28;20115;-83
2023/04/06 02:10:33;;;;;;;9.85;6.03;;;-0.90;99.90;;;;;;5089909;28;20157;-84
2023/04/06 02:12:59;;;;;;;10.90;5.97;;;-1.00;99.90;;;;;;5067716;28;20059;-88
2023/04/06 02:15:26;;;;;;;9.05;6.10;;;-1.00;99.90;;;;;;5066558;28;20133;-86
2023/04/06 02:17:52;;;;;;;9.40;5.60;;;-1.10;99.90;;;;;;5078236;28;20089;-84
2023/04/06 02:20:18;;;;;;;8.27;5.43;;;-1.10;99.90;;;;;;5087163;28;20043;-83
2023/04/06 02:22:43;;;;;;;8.18;5.50;;;-1.10;99.90;;;;;;5081586;28;20058;-83
2023/04/06 02:25:09;;;;;;;11.18;5.93;;;-1.20;99.90;;;;;;5060122;28;20163;-83
2023/04/06 02:27:36;;;;;;;8.35;6.05;;;-1.10;99.90;;;;;;5077537;28;20105;-86
2023/04/06 02:30:02;;;;;;;10.80;6.30;;;-1.10;99.90;;;;;;5092268;28;20485;-83
2023/04/06 02:32:28;;;;;;;9.88;6.55;;;-1.00;99.90;;;;;;5063079;28;20052;-85
2023/04/06 02:34:54;;;;;;;9.95;5.90;;;-1.10;99.90;;;;;;5051794;28;20503;-83
2023/04/06 02:37:20;;;;;;;10.43;5.95;;;-1.10;99.90;;;;;;5069565;28;20044;-83
2023/04/06 02:39:46;;;;;;;10.43;6.15;;;-1.10;99.90;;;;;;5058249;28;20389;-84
2023/04/06 02:42:12;;;;;;;12.73;6.03;;;-1.20;99.90;;;;;;5073878;28;20154;-83
2023/04/06 02:44:38;;;;;;;9.20;5.88;;;-1.30;99.90;;;;;;5047093;28;20442;-83
2023/04/06 02:47:03;;;;;;;11.23;6.05;;;-1.30;99.90;;;;;;5061299;28;20795;-83
2023/04/06 02:49:29;;;;;;;8.90;5.45;;;-1.40;99.90;;;;;;5077907;28;20051;-83
2023/04/06 02:51:55;;;;;;;9.07;6.10;;;-1.40;99.90;;;;;;5042138;28;20447;-84
2023/04/06 02:54:20;;;;;;;9.30;5.90;;;-1.30;99.90;;;;;;5074839;28;20035;-83
2023/04/06 02:56:46;;;;;;;9.75;5.65;;;-1.30;99.90;;;;;;5079924;28;20036;-83
2023/04/06 02:59:12;;;;;;;9.90;6.18;;;-1.20;99.90;;;;;;5066005;28;20043;-83
2023/04/06 03:01:38;;;;;;;10.05;6.43;;;-1.10;99.90;;;;;;5057819;28;20109;-83
2023/04/06 03:04:03;;;;;;;10.95;5.85;;;-1.10;99.90;;;;;;5061594;28;20036;-84
2023/04/06 03:06:30;;;;;;;9.43;6.15;;;-1.10;99.90;;;;;;5046865;28;20056;-83
2023/04/06 03:08:55;;;;;;;10.00;5.57;;;-1.10;99.90;;;;;;5057340;28;20061;-87
2023/04/06 03:11:21;;;;;;;11.90;6.45;;;-1.00;99.90;;;;;;5065341;28;20048;-85
2023/04/06 03:13:47;;;;;;;12.10;6.32;;;-1.00;99.90;;;;;;5060512;28;20048;-83
2023/04/06 03:16:13;;;;;;;11.13;6.07;;;-1.00;99.90;;;;;;5071820;28;20040;-83
2023/04/06 03:18:38;;;;;;;8.90;5.78;;;-1.10;99.90;;;;;;5065369;28;20047;-83
2023/04/06 03:21:04;;;;;;;10.27;5.97;;;-1.10;99.90;;;;;;5053533;28;20539;-83
2023/04/06 03:23:30;;;;;;;11.10;6.05;;;-1.00;99.90;;;;;;5053188;28;20076;-82
2023/04/06 03:25:56;;;;;;;10.75;6.25;;;-0.80;99.90;;;;;;5067391;28;20446;-87
2023/04/06 03:28:22;;;;;;;9.93;5.90;;;-1.00;99.90;;;;;;5056843;28;20050;-82
2023/04/06 03:30:49;;;;;;;9.00;6.10;;;-1.10;99.90;;;;;;5073454;28;20075;-83
2023/04/06 03:33:15;;;;;;;8.43;5.97;;;-1.10;99.90;;;;;;5064550;28;20405;-84
2023/04/06 03:35:40;;;;;;;10.52;6.63;;;-1.30;99.90;;;;;;5041384;28;20135;-83
2023/04/06 03:38:06;;;;;;;11.52;6.10;;;-1.30;99.90;;;;;;5048904;28;20036;-83
2023/04/06 03:40:32;;;;;;;11.00;6.43;;;-1.30;99.90;;;;;;5071886;28;20044;-83
2023/04/06 03:42:58;;;;;;;11.70;6.55;;;-1.40;99.90;;;;;;5085002;28;20044;-83
2023/04/06 03:45:24;;;;;;;9.98;6.10;;;-1.50;99.90;;;;;;5029589;28;20055;-83
2023/04/06 03:47:49;;;;;;;15.80;6.07;;;-1.50;99.90;;;;;;5068578;28;20075;-82
2023/04/06 03:50:15;;;;;;;9.95;6.53;;;-1.50;99.90;;;;;;5060490;28;20055;-83
2023/04/06 03:52:41;;;;;;;9.73;6.00;;;-1.60;99.90;;;;;;5073350;28;20035;-84
2023/04/06 03:55:07;;;;;;;10.50;6.15;;;-1.60;99.90;;;;;;5040734;28;20451;-83
2023/04/06 03:57:33;;;;;;;11.52;6.50;;;-1.60;99.90;;;;;;5037481;28;20106;-83
2023/04/06 03:59:59;;;;;;;11.20;5.97;;;-1.60;99.90;;;;;;5070214;28;20428;-83
2023/04/06 04:02:25;;;;;;;10.07;6.82;;;-1.50;99.90;;;;;;5072952;28;20048;-82
2023/04/06 04:04:51;;;;;;;10.57;6.53;;;-1.50;99.90;;;;;;5046335;28;20048;-83
2023/04/06 04:07:16;;;;;;;11.10;7.00;;;-1.50;99.90;;;;;;5089124;28;20058;-83
2023/04/06 04:09:42;;;;;;;10.77;6.53;;;-1.50;99.90;;;;;;5082008;28;20094;-84
2023/04/06 04:12:08;;;;;;;12.48;6.45;;;-1.60;99.90;;;;;;5043026;28;20052;-83
2023/04/06 04:14:33;;;;;;;10.20;6.53;;;-1.60;99.90;;;;;;5068713;28;20048;-83
2023/04/06 04:16:59;;;;;;;13.10;6.55;;;-1.60;99.90;;;;;;5043073;28;20047;-83
2023/04/06 04:19:25;;;;;;;11.13;5.97;;;-1.50;99.90;;;;;;5065934;28;20202;-83
2023/04/06 04:21:50;;;;;;;10.40;5.63;;;-1.60;99.90;;;;;;5059444;28;20117;-83
2023/04/06 04:24:16;;;;;;;10.80;6.82;;;-1.60;99.90;;;;;;5058865;28;20068;-83
2023/04/06 04:26:42;;;;;;;12.65;6.38;;;-1.60;99.90;;;;;;5056972;28;20457;-83
2023/04/06 04:29:08;;;;;;;13.65;6.72;;;-1.60;99.90;;;;;;5039690;28;20075;-84
2023/04/06 04:31:34;;;;;;;12.88;6.97;;;-1.60;99.90;;;;;;5059501;28;20125;-84
2023/04/06 04:34:00;;;;;;;11.70;7.20;;;-1.60;99.90;;;;;;5044863;28;20052;-85
2023/04/06 04:36:26;;;;;;;14.88;6.82;;;-1.60;99.90;;;;;;5078954;28;20040;-83
2023/04/06 04:38:55;;;;;;;11.48;6.82;;;-1.50;99.90;;;;;;5056671;28;20044;-82
2023/04/06 04:41:20;;;;;;;11.23;6.93;;;-1.60;99.90;;;;;;5072878;28;20082;-83
2023/04/06 04:43:46;;;;;;;15.77;6.97;;;-1.70;99.90;;;;;;5059882;28;20076;-83
2023/04/06 04:46:12;;;;;;;13.82;7.18;;;-1.70;99.90;;;;;;5056512;28;20043;-83
2023/04/06 04:48:37;;;;;;;9.70;6.78;;;-1.60;99.90;;;;;;5064053;28;20563;-83
2023/04/06 04:51:05;;;;;;;12.35;7.15;;;-1.60;99.90;;;;;;5040978;28;20040;-83
2023/04/06 04:53:31;;;;;;;10.23;6.57;;;-1.70;99.90;;;;;;5038517;28;20433;-83
2023/04/06 04:55:56;;;;;;;10.45;6.57;;;-1.70;99.90;;;;;;5056183;28;20036;-83
2023/04/06 04:58:22;;;;;;;13.90;7.53;;;-1.70;99.90;;;;;;5055747;28;21302;-86
2023/04/06 05:00:48;;;;;;;12.63;7.30;;;-1.70;99.90;;;;;;5069154;28;20512;-83
2023/04/06 05:03:22;;;;;;;12.85;6.93;;;-1.70;99.90;;;;;;5055547;28;20036;-84
2023/04/06 05:05:47;;;;;;;14.23;7.30;;;-1.60;99.90;;;;;;5078136;28;20099;-83
2023/04/06 05:08:13;;;;;;;15.07;7.35;;;-1.60;99.90;;;;;;5045528;28;20045;-85
2023/04/06 05:10:39;;;;;;;12.05;6.82;;;-1.60;99.90;;;;;;5054270;28;20036;-82
2023/04/06 05:13:05;;;;;;;14.02;7.93;;;-1.60;99.90;;;;;;5054753;28;20127;-84
2023/04/06 05:15:31;;;;;;;12.50;7.20;;;-1.60;99.90;;;;;;5036809;28;20124;-83
2023/04/06 05:17:57;;;;;;;13.68;7.20;;;-1.50;99.90;;;;;;5053634;28;20382;-83
2023/04/06 05:20:23;;;;;;;12.85;7.32;;;-1.40;99.90;;;;;;5064980;28;20041;-83
2023/04/06 05:22:49;;;;;;;13.10;7.68;;;-1.40;99.90;;;;;;5048528;28;20041;-83
2023/04/06 05:25:15;;;;;;;12.50;7.55;;;-1.40;99.90;;;;;;5071031;28;20448;-85
2023/04/06 05:27:41;;;;;;;10.60;7.20;;;-1.40;99.90;;;;;;5069698;28;20053;-84
2023/04/06 05:30:08;;;;;;;13.70;7.38;;;-1.30;99.90;;;;;;5054025;28;20047;-85
2023/04/06 05:32:34;;;;;;;12.40;7.38;;;-1.30;99.90;;;;;;5052311;28;20124;-80
2023/04/06 05:35:00;;;;;;;11.43;7.18;;;-1.20;99.90;;;;;;5074353;28;20048;-84
2023/04/06 05:37:26;;;;;;;14.50;7.45;;;-1.30;99.90;;;;;;5021423;28;20052;-85
2023/04/06 05:39:51;;;;;;;13.25;8.02;;;-1.10;99.90;;;;;;5039148;28;20494;-82
2023/04/06 05:42:17;;;;;;;13.98;8.02;;;-1.10;99.90;;;;;;5054721;28;20135;-87
2023/04/06 05:44:43;;;;;;;11.07;7.00;;;-1.00;99.90;;;;;;5044250;28;20052;-84
2023/04/06 05:47:09;;;;;;;14.50;7.53;;;-1.00;99.90;;;;;;5055991;28;20048;-83
2023/04/06 05:49:35;;;;;;;16.05;7.88;;;-0.90;99.90;;;;;;5037066;28;20123;-83
2023/04/06 05:52:04;;;;;;;19.70;8.73;;;-0.80;99.90;;;;;;5057973;28;20394;-84
2023/04/06 05:54:30;;;;;;;14.27;8.38;;;-0.60;99.90;;;;;;5072449;28;20040;-83
2023/04/06 05:56:55;;;;;;;13.90;8.38;;;-0.50;99.90;;;;;;5043142;28;20041;-85
2023/04/06 05:59:21;;;;;;;14.90;8.48;;;-0.30;99.90;;;;;;5040129;28;20044;-85
2023/04/06 06:01:47;;;;;;;14.90;8.18;;;-0.20;99.90;;;;;;5057465;28;20044;-86
2023/04/06 06:04:13;;;;;;;13.68;8.57;;;0.00;99.90;;;;;;5055292;28;20119;-88
2023/04/06 06:06:39;;;;;;;14.73;9.13;;;0.20;99.90;;;;;;5052640;28;20084;-84
2023/04/06 06:09:04;;;;;;;12.25;8.25;;;0.40;99.90;;;;;;5061462;28;20149;-82
2023/04/06 06:11:30;;;;;;;11.30;7.80;;;0.50;99.90;;;;;;5075673;28;20468;-80
2023/04/06 06:13:56;;;;;;;16.48;8.18;;;0.70;99.90;;;;;;5065579;28;20048;-82
2023/04/06 06:16:22;;;;;;;14.35;8.50;;;0.90;99.90;;;;;;5064209;28;20036;-82
2023/04/06 06:18:48;;;;;;;12.50;7.97;;;1.10;99.90;;;;;;5059061;28;20048;-81
2023/04/06 06:21:14;;;;;;;12.35;7.63;;;1.30;99.90;;;;;;5052697;28;20052;-82
2023/04/06 06:23:41;;;;;;;12.02;8.00;;;1.40;99.90;;;;;;5074310;28;20147;-83
2023/04/06 06:26:07;;;;;;;13.23;8.18;;;1.60;99.90;;;;;;5058809;28;20056;-85
2023/04/06 06:28:33;;;;;;;13.00;8.35;;;1.70;99.90;;;;;;5078629;28;20088;-84
2023/04/06 06:30:58;;;;;;;11.65;7.82;;;1.80;99.90;;;;;;5053188;28;20047;-81
2023/04/06 06:33:25;;;;;;;11.52;8.02;;;1.90;99.90;;;;;;5055079;28;20045;-83
2023/04/06 06:35:52;;;;;;;11.60;7.70;;;2.00;99.90;;;;;;5052731;28;20089;-82
2023/04/06 06:38:18;;;;;;;12.40;8.30;;;2.10;99.90;;;;;;5081947;28;20119;-83
2023/04/06 06:40:45;;;;;;;11.38;8.10;;;2.10;99.90;;;;;;5083895;28;20161;-83
2023/04/06 06:43:11;;;;;;;12.75;7.20;;;2.20;99.90;;;;;;5078334;28;20082;-84
2023/04/06 06:45:37;;;;;;;11.85;8.15;;;2.30;99.90;;;;;;5082242;28;20067;-83
2023/04/06 06:48:03;;;;;;;12.65;8.05;;;2.40;99.90;;;;;;5056855;28;20098;-86
2023/04/06 06:50:29;;;;;;;11.85;7.93;;;2.40;99.90;;;;;;5075909;28;20040;-82
2023/04/06 06:52:57;;;;;;;11.68;7.93;;;2.50;99.90;;;;;;5060503;28;20040;-81
2023/04/06 06:55:23;;;;;;;12.95;8.23;;;2.70;99.90;;;;;;5076763;28;20044;-84
2023/04/06 06:57:49;;;;;;;11.50;7.72;;;2.70;99.90;;;;;;5060266;28;20116;-85
2023/04/06 07:00:15;;;;;;;16.45;8.23;;;2.80;99.90;;;;;;5057469;28;20051;-85
2023/04/06 07:02:40;;;;;;;13.30;7.82;;;2.80;99.90;;;;;;5060237;28;20485;-83
2023/04/06 07:05:06;;;;;;;14.77;8.90;;;2.80;99.90;;;;;;5058030;28;20052;-84
2023/04/06 07:07:33;;;;;;;12.52;7.85;;;2.80;91.60;;;;;;5085818;28;20512;-82
2023/04/06 07:10:00;;;;;;;12.38;7.75;;;2.90;82.60;;;;;;5079558;28;20232;-83
2023/04/06 07:12:25;;;;;;;12.52;7.93;;;2.90;75.90;;;;;;5056220;28;20053;-84
2023/04/06 07:14:51;;;;;;;14.27;8.43;;;2.90;66.30;;;;;;5054249;28;20059;-83
2023/04/06 07:17:17;;;;;;;15.20;8.50;;;3.00;59.70;;;;;;5061702;28;20044;-82
2023/04/06 07:19:43;;;;;;;13.90;9.00;;;3.00;55.30;;;;;;5077271;28;20492;-83
2023/04/06 07:22:09;;;;;;;13.18;9.05;;;3.10;53.40;;;;;;5075977;28;20126;-81
2023/04/06 07:24:34;;;;;;;12.90;8.50;;;3.20;49.40;;;;;;5062767;28;20073;-82
2023/04/06 07:27:00;;;;;;;14.07;8.98;;;3.20;48.20;;;;;;5057528;28;20044;-83
2023/04/06 07:29:27;;;;;;;13.48;8.40;;;3.30;46.70;;;;;;5045701;28;20043;-86
2023/04/06 07:31:53;;;;;;;13.55;9.00;;;3.40;42.00;;;;;;5054555;28;20044;-84
2023/04/06 07:34:19;;;;;;;13.65;8.50;;;3.50;39.00;;;;;;5076467;28;20046;-84
2023/04/06 07:36:44;;;;;;;13.68;8.30;;;3.60;40.00;;;;;;5063561;28;20493;-83
2023/04/06 07:39:10;;;;;;;10.98;7.85;;;3.70;36.60;;;;;;5085328;28;20048;-84
2023/04/06 07:41:36;;;;;;;15.77;8.20;;;3.80;30.30;;;;;;5060344;28;20541;-83
2023/04/06 07:44:03;;;;;;;11.45;8.02;;;3.90;22.60;;;;;;5070148;28;20046;-84
2023/04/06 07:46:29;;;;;;;15.35;8.25;;;4.00;19.10;;;;;;5064542;28;20036;-88
2023/04/06 07:48:55;;;;;;;11.55;7.72;;;4.20;16.00;;;;;;5067356;28;20397;-85
2023/04/06 07:51:22;;;;;;;13.65;7.90;;;4.30;13.50;;;;;;5084781;28;20040;-85
2023/04/06 07:53:48;;;;;;;14.40;9.00;;;4.40;12.80;;;;;;5064905;28;20034;-85
2023/04/06 07:56:15;;;;;;;13.48;8.38;;;4.50;12.00;;;;;;5056298;28;20040;-85
2023/04/06 07:58:41;;;;;;;13.98;8.57;;;4.70;10.70;;;;;;5060171;28;20785;-83
2023/04/06 08:01:06;;;;;;;14.88;8.90;;;4.80;8.30;;;;;;5063127;28;20132;-86
2023/04/06 08:03:34;;;;;;;15.02;8.20;;;5.00;3.80;;;;;;5049320;28;20040;-84
2023/04/06 08:06:00;;;;;;;16.60;8.48;;;5.10;1.00;;;;;;5082125;28;20382;-84
2023/04/06 08:08:26;;;;;;;13.98;7.35;;;5.30;1.00;;;;;;5052669;28;20048;-89
2023/04/06 08:10:52;;;;;;;13.65;7.97;;;5.30;1.00;;;;;;5080756;28;20113;-83
2023/04/06 08:13:18;;;;;;;13.07;7.57;;;5.50;1.00;;;;;;5045795;28;20044;-82
2023/04/06 08:15:44;;;;;;;11.10;7.40;;;5.60;1.00;;;;;;5081953;28;20036;-83
2023/04/06 08:18:10;;;;;;;11.23;7.47;;;5.80;1.00;;;;;;5047940;28;20078;-81
2023/04/06 08:20:35;;;;;;;13.10;7.93;;;5.90;1.00;;;;;;5061826;28;20040;-85
2023/04/06 08:23:01;;;;;;;12.45;8.18;;;6.10;1.00;;;;;;5078299;28;20116;-86
2023/04/06 08:25:27;;;;;;;13.48;8.68;;;6.20;1.00;;;;;;5081767;28;20549;-85
2023/04/06 08:27:53;;;;;;;13.18;7.95;;;6.40;1.00;;;;;;5048562;28;20040;-83
2023/04/06 08:30:19;;;;;;;12.57;7.93;;;6.50;1.00;;;;;;5049237;28;20169;-84
2023/04/06 08:32:47;;;;;;;12.63;7.90;;;6.70;1.00;;;;;;5056280;28;20039;-84
2023/04/06 08:35:13;;;;;;;12.35;7.97;;;6.80;1.00;;;;;;5061639;28;20028;-83
2023/04/06 08:37:39;;;;;;;12.65;8.05;;;7.00;1.00;;;;;;5047674;28;20090;-84
2023/04/06 08:40:05;;;;;;;12.07;7.88;;;7.20;1.00;;;;;;5062887;28;21458;-85
2023/04/06 08:42:43;;;;;;;13.30;7.82;;;7.30;1.00;;;;;;5055890;28;20052;-89
2023/04/06 08:45:09;;;;;;;14.20;7.78;;;7.50;1.00;;;;;;5087758;28;20052;-84
2023/04/06 08:47:37;;;;;;;11.45;7.53;;;7.70;1.00;;;;;;5064079;28;20161;-87
2023/04/06 08:50:05;;;;;;;14.80;8.10;;;7.90;1.00;;;;;;5084510;28;20052;-83
2023/04/06 08:52:33;;;;;;;14.63;7.65;;;8.10;1.00;;;;;;5074631;28;20044;-82
2023/04/06 08:55:00;;;;;;;11.88;7.57;;;8.30;1.00;;;;;;5077728;28;20500;-84
2023/04/06 08:57:26;;;;;;;13.13;7.50;;;8.40;1.00;;;;;;5049943;28;20051;-82
2023/04/06 08:59:53;;;;;;;13.77;7.70;;;8.60;1.00;;;;;;5053620;28;20052;-83
2023/04/06 09:02:21;;;;;;;11.93;6.95;;;8.80;1.00;;;;;;5080198;28;20131;-83
2023/04/06 09:04:49;;;;;;;12.48;7.15;;;9.00;1.00;;;;;;5062906;28;20067;-85
2023/04/06 09:07:16;;;;;;;12.93;7.45;;;9.30;1.00;;;;;;5046674;28;20047;-90
2023/04/06 09:09:47;;;;;;;13.75;8.13;;;9.60;1.00;;;;;;5079613;28;20062;-86
2023/04/06 09:12:30;;;;;;;13.88;7.93;;;9.90;1.00;;;;;;5057190;28;20090;-87
2023/04/06 09:14:57;;;;;;;13.48;7.45;;;10.30;1.00;;;;;;5065121;28;20085;-86
2023/04/06 09:17:24;;;;;;;13.65;7.35;;;10.70;1.00;;;;;;5046529;28;20048;-86
2023/04/06 09:19:50;;;;;;;13.52;7.75;;;11.10;1.00;;;;;;5078443;28;20040;-88
2023/04/06 09:22:17;;;;;;;11.98;7.97;;;11.60;1.00;;;;;;5050951;28;20044;-85
2023/04/06 09:24:51;;;;;;;11.55;7.38;;;12.10;1.00;;;;;;5076606;28;20063;-85
2023/04/06 09:27:17;;;;;;;13.98;8.02;;;12.50;1.00;;;;;;5083732;28;20043;-85
2023/04/06 09:29:44;;;;;;;13.02;8.48;;;12.80;1.00;;;;;;5073481;28;20507;-85
2023/04/06 09:32:11;;;;;;;14.52;8.90;;;12.80;1.00;;;;;;5056339;28;20593;-87
2023/04/06 09:34:40;;;;;;;14.80;8.07;;;12.90;1.00;;;;;;5081725;28;20040;-87
2023/04/06 09:37:17;;;;;;;14.13;8.20;;;13.00;1.00;;;;;;5049230;28;20047;-85
2023/04/06 09:39:44;;;;;;;14.55;8.82;;;13.10;1.00;;;;;;5064011;28;20048;-86
2023/04/06 09:42:10;;;;;;;19.33;10.23;;;13.20;1.00;;;;;;5052625;28;20400;-86
2023/04/06 09:44:35;;;;;;;16.38;9.30;;;13.40;1.00;;;;;;5085634;28;20123;-85
2023/04/06 09:47:06;;;;;;;15.07;9.07;;;13.60;1.00;;;;;;5075735;28;20044;-87
2023/04/06 09:49:33;;;;;;;15.02;9.18;;;13.90;1.00;;;;;;5081278;28;20048;-86
2023/04/06 09:52:02;;;;;;;15.35;9.07;;;14.20;1.00;;;;;;5069992;28;20159;-85
2023/04/06 09:54:30;;;;;;;13.68;8.77;;;14.50;1.00;;;;;;5081130;28;20067;-86
2023/04/06 09:57:14;;;;;;;17.17;10.35;;;14.70;1.00;;;;;;5056521;28;20036;-86
2023/04/06 09:59:40;;;;;;;16.95;10.30;;;14.80;1.00;;;;;;5073569;28;20127;-89
2023/04/06 10:02:15;;;;;;;21.67;11.75;;;14.80;1.00;;;;;;5079923;28;20122;-87
2023/04/06 10:04:54;;;;;;;16.73;10.73;;;14.70;1.00;;;;;;5052865;28;20064;-88
2023/04/06 10:07:21;;;;;;;15.82;10.70;;;14.60;1.00;;;;;;5070213;28;20079;-85
2023/04/06 10:09:47;;;;;;;17.45;10.27;;;14.60;1.00;;;;;;5066823;28;20078;-85
2023/04/06 10:12:13;;;;;;;17.63;11.00;;;14.60;1.00;;;;;;5077383;28;20093;-85
2023/04/06 10:14:41;;;;;;;17.33;11.15;;;14.50;1.00;;;;;;5040565;28;20052;-85
2023/04/06 10:17:06;;;;;;;20.38;11.90;;;14.40;1.00;;;;;;5082362;28;20044;-86
2023/04/06 10:19:52;;;;;;;16.45;10.98;;;14.60;1.00;;;;;;5053414;28;20073;-85
2023/04/06 10:22:29;;;;;;;22.08;12.73;;;15.10;1.00;;;;;;5062600;28;20044;-86
2023/04/06 10:24:55;;;;;;;18.60;11.48;;;15.40;1.00;;;;;;5060495;28;20085;-83
2023/04/06 10:27:29;;;;;;;18.52;11.55;;;15.60;1.00;;;;;;5078820;28;20044;-86
2023/04/06 10:30:04;;;;;;;20.80;12.63;;;16.10;1.00;;;;;;5063380;28;20464;-84
2023/04/06 10:32:36;;;;;;;19.33;11.68;;;16.30;1.00;;;;;;5076737;28;20118;-84
2023/04/06 10:35:09;;;;;;;19.45;12.15;;;16.50;1.00;;;;;;5076479;28;20573;-85
2023/04/06 10:37:53;;;;;;;20.30;12.38;;;16.50;1.00;;;;;;5056120;28;20101;-85
2023/04/06 10:40:26;;;;;;;21.45;12.40;;;16.40;1.00;;;;;;5072404;28;20489;-85
2023/04/06 10:43:06;;;;;;;20.48;12.27;;;16.30;1.00;;;;;;5074149;28;20044;-85
2023/04/06 10:45:32;;;;;;;18.67;12.20;;;16.10;1.00;;;;;;5079993;28;20048;-85
2023/04/06 10:47:58;;;;;;;22.05;12.35;;;16.30;1.00;;;;;;5084253;28;20070;-84
2023/04/06 10:50:24;;;;;;;21.77;12.88;;;16.60;1.00;;;;;;5059827;28;20405;-85
2023/04/06 10:53:01;;;;;;;19.17;12.15;;;17.00;1.00;;;;;;5059757;28;20044;-86
2023/04/06 10:55:28;;;;;;;19.80;11.68;;;17.10;1.00;;;;;;5062439;28;20370;-86
2023/04/06 10:57:54;;;;;;;19.90;13.48;;;17.00;1.00;;;;;;5069632;28;20075;-88
2023/04/06 11:00:20;;;;;;;20.33;13.55;;;16.70;1.00;;;;;;5042017;28;20040;-85
2023/04/06 11:02:47;;;;;;;20.17;12.43;;;16.40;1.00;;;;;;5060979;28;20444;-87
2023/04/06 11:05:13;;;;;;;23.05;13.18;;;16.50;1.00;;;;;;5059523;28;20086;-85
2023/04/06 11:07:40;;;;;;;20.13;12.55;;;16.90;1.00;;;;;;5050011;28;20056;-85
2023/04/06 11:10:07;;;;;;;18.10;12.05;;;17.50;1.00;;;;;;5075140;28;20718;-86
2023/04/06 11:12:32;;;;;;;26.42;14.82;;;18.20;1.00;;;;;;5058627;28;20051;-86
2023/04/06 11:15:06;;;;;;;20.27;13.30;;;18.60;1.00;;;;;;5075163;28;20044;-86
2023/04/06 11:17:35;;;;;;;21.83;14.18;;;18.60;1.00;;;;;;5058662;28;20048;-85
2023/04/06 11:20:02;;;;;;;20.50;13.35;;;18.50;1.00;;;;;;5074304;28;20052;-86
2023/04/06 11:22:29;;;;;;;20.23;13.65;;;18.40;1.00;;;;;;5059288;28;20048;-86
2023/04/06 11:25:06;;;;;;;22.98;14.95;;;18.70;1.00;;;;;;5073705;28;20044;-86
2023/04/06 11:27:33;;;;;;;22.27;14.52;;;18.90;1.00;;;;;;5058155;28;20181;-86
2023/04/06 11:30:00;;;;;;;23.70;14.73;;;18.90;1.00;;;;;;5081599;28;20067;-85
2023/04/06 11:32:26;;;;;;;22.50;14.85;;;19.10;1.00;;;;;;5054956;28;20051;-86
2023/04/06 11:34:51;;;;;;;21.27;13.95;;;19.10;1.00;;;;;;5043921;28;20040;-87
2023/04/06 11:37:17;;;;;;;21.38;14.35;;;19.00;1.00;;;;;;5078958;28;20040;-86
2023/04/06 11:39:52;;;;;;;22.13;14.88;;;18.60;1.00;;;;;;5048340;28;20463;-86
2023/04/06 11:42:25;;;;;;;22.10;14.60;;;18.20;1.00;;;;;;5075620;28;20036;-87
2023/04/06 11:44:54;;;;;;;23.15;14.55;;;17.80;1.00;;;;;;5083704;28;20067;-88
2023/04/06 11:47:26;;;;;;;20.98;13.60;;;17.50;1.00;;;;;;5060518;28;20090;-86
2023/04/06 11:49:52;;;;;;;19.60;13.57;;;17.30;1.00;;;;;;5079786;28;20133;-88
2023/04/06 11:52:20;;;;;;;20.10;14.27;;;17.10;1.00;;;;;;5078425;28;20095;-88
2023/04/06 11:54:47;;;;;;;23.20;14.55;;;16.90;1.00;;;;;;5076597;28;20255;-88
2023/04/06 11:57:14;;;;;;;24.13;14.43;;;16.50;1.00;;;;;;5051771;28;20040;-89
2023/04/06 11:59:40;;;;;;;21.80;14.27;;;16.20;1.00;;;;;;5086934;28;20080;-88
2023/04/06 12:02:06;;;;;;;23.90;14.93;;;16.10;1.00;;;;;;5078261;28;20661;-87
2023/04/06 12:04:32;;;;;;;22.63;13.98;;;16.10;1.00;;;;;;5047318;28;20539;-86
2023/04/06 12:06:58;;;;;;;22.05;13.98;;;16.20;1.00;;;;;;5076711;28;20060;-87
2023/04/06 12:09:24;;;;;;;24.02;14.35;;;16.10;1.00;;;;;;5040597;28;20101;-88
2023/04/06 12:11:50;;;;;;;23.02;14.02;;;16.20;1.00;;;;;;5049615;28;20051;-87
2023/04/06 12:14:16;;;;;;;23.80;14.52;;;16.30;1.00;;;;;;5040180;28;20050;-90
2023/04/06 12:16:42;;;;;;;22.20;14.77;;;16.50;1.00;;;;;;5041929;28;20539;-87
2023/04/06 12:19:07;;;;;;;21.90;14.35;;;16.70;1.00;;;;;;5056313;28;20048;-87
2023/04/06 12:21:37;;;;;;;21.67;13.65;;;16.80;1.00;;;;;;5075152;28;20066;-88
2023/04/06 12:24:05;;;;;;;24.75;15.25;;;16.90;1.00;;;;;;5079780;28;20036;-88
2023/04/06 12:26:31;;;;;;;23.27;15.05;;;16.90;1.00;;;;;;5033825;28;20052;-85
2023/04/06 12:28:57;;;;;;;23.90;14.65;;;16.90;1.00;;;;;;5049096;28;20169;-90
2023/04/06 12:31:25;;;;;;;24.75;14.52;;;16.80;1.00;;;;;;5068775;28;20044;-89
2023/04/06 12:33:51;;;;;;;21.60;13.75;;;16.80;1.00;;;;;;5079612;28;20520;-89
2023/04/06 12:36:18;;;;;;;23.45;15.05;;;16.80;1.00;;;;;;5047748;28;20044;-86
2023/04/06 12:38:46;;;;;;;26.63;15.15;;;16.80;1.00;;;;;;5046120;28;20048;-88
2023/04/06 12:41:12;;;;;;;27.10;15.80;;;16.70;1.00;;;;;;5100276;28;20366;-87